METAR Data
IDs: Format: Raw Decoded Include TAF

Data at: 2354 UTC 24 Apr 2019

PAOO 242256Z AUTO 12006KT 10SM CLR M01/M07 A3015 RMK AO2 SLP221 T10061072 FZRANO
PAOO 242156Z AUTO 09006KT 10SM CLR 00/M07 A3014 RMK AO2 SLP219 T00001072 FZRANO
PAOO 242056Z AUTO 10006KT 10SM CLR M01/M06 A3013 RMK AO2 SLP215 T10061056 53014 FZRANO
PAOO 241956Z AUTO 07003KT 9SM CLR M01/M06 A3012 RMK AO2 SLP210 T10061061 FZRANO
PAOO 241856Z AUTO 31003KT 10SM CLR M04/M08 A3010 RMK AO2 SLP205 T10441078 FZRANO
PAOO 241656Z AUTO 31005KT 10SM CLR M06/M09 A3008 RMK AO2 SLP196 T10561094 FZRANO
PAOO 241556Z AUTO 31005KT 10SM CLR M07/M10 A3006 RMK AO2 SLP190 T10721100 FZRANO
PAOO 241456Z AUTO 33006KT 10SM CLR M07/M09 A3004 RMK AO2 SLP185 T10721094 51012 FZRANO
PAOO 241356Z AUTO 33004KT 10SM CLR M08/M10 A3003 RMK AO2 SLP181 T10781100 FZRANO
PAOO 241256Z AUTO 33005KT 10SM CLR M07/M10 A3002 RMK AO2 SLP177 T10671100 FZRANO
PAOO 241156Z AUTO 31005KT 10SM CLR M07/M09 A3001 RMK AO2 SLP173 7//// T10721094 11050 21083 51017 FZRANO
PAOO 241056Z AUTO 31005KT 10SM CLR M06/M09 A3000 RMK AO2 SLP168 T10611089 FZRANO
PAOO 240956Z AUTO 31005KT 10SM CLR M06/M09 A2998 RMK AO2 SLP163 T10611089 FZRANO
PAOO 240856Z AUTO 34005KT 10SM CLR M07/M09 A2996 RMK AO2 SLP156 T10671094 410111072 51022 FZRANO
PAOO 240756Z AUTO 32005KT 10SM CLR M06/M08 A2994 RMK AO2 SLP150 T10611083 FZRANO
PAOO 240656Z AUTO 31005KT 10SM CLR M06/M08 A2992 RMK AO2 SLP142 T10611083 FZRANO
PAOO 240556Z AUTO 32004KT 10SM CLR M05/M07 A2990 RMK AO2 SLP134 T10501072 11011 21050 53017 FZRANO
PAOO 240456Z AUTO 07003KT 10SM CLR M02/M06 A2988 RMK AO2 SLP128 T10221061 FZRANO
PAOO 240356Z AUTO 10004KT 10SM CLR M02/M06 A2986 RMK AO2 SLP123 T10221056 FZRANO
PAOO 240256Z AUTO 10005KT 10SM CLR M02/M06 A2985 RMK AO2 SLP118 T10221056 53010 FZRANO
PAOO 240156Z AUTO 00000KT 10SM CLR M02/M06 A2983 RMK AO2 SLP113 T10171056 FZRANO
PAOO 240056Z AUTO 12003KT 10SM FEW028 M02/M06 A2982 RMK AO2 SLP108 T10171056 FZRANO
PAOO 240054Z AUTO 12003KT 10SM SCT028 M02/M06 A2982 RMK AO2 FZRANO
PAOO 232356Z AUTO 00000KT 10SM BKN018 M02/M05 A2981 RMK AO2 SLP104 6//// T10171050 11017 21039 53009 FZRANO
PAOO 232326Z AUTO 16003KT 10SM BKN023 M02/M06 A2980 RMK AO2 FZRANO
PAOO 232256Z AUTO 00000KT 10SM FEW027 M02/M06 A2979 RMK AO2 SLP099 T10221061 FZRANO
PAOO 232156Z AUTO 20004KT 10SM FEW008 M03/M06 A2978 RMK AO2 SNE40 SLP096 P0000 T10331056 FZRANO
PAOO 232153Z AUTO 20004KT 10SM FEW008 M03/M06 A2978 RMK AO2 SNE40 P0000 FZRANO
PAOO 232140Z AUTO 20005KT 9SM FEW010 SCT028 M03/M06 A2978 RMK AO2 SNE40 P0000 FZRANO
PAOO 232103Z AUTO 20007KT 3SM -SN BR FEW010 SCT022 OVC027 M04/M06 A2976 RMK AO2 P0000 FZRANO
PAOO 232056Z AUTO 20007KT 2SM -SN BR M04/M06 A2976 RMK AO2 SNB37 SLP090 6//// T10391056 FZRANO
PAOO 231949Z AUTO 22007KT 1 1/2SM -SN OVC026 M02/M06 A2975 RMK AO2 P0000 FZRANO
PAOO 231937Z AUTO 21007KT 2 1/2SM -SN BKN026 OVC032 M02/M06 A2974 RMK AO2 P0000 FZRANO
PAOO 231919Z AUTO 22008KT 3SM -SN OVC031 M03/M06 A2974 RMK AO2 P0000 FZRANO
PAOO 231908Z AUTO 22008KT 2 1/2SM -SN BKN029 OVC036 M03/M06 A2973 RMK AO2 P0000 FZRANO
PAOO 231856Z AUTO 22008KT 3SM -SN OVC027 M03/M06 A2973 RMK AO2 SLP078 P0000 T10331061 FZRANO
PAOO 231847Z AUTO 22008KT 3SM -SN FEW020 OVC029 M03/M06 A2973 RMK AO2 P0000 FZRANO
PAOO 231836Z AUTO 22010KT 2 1/2SM -SN BKN020 OVC029 M03/M06 A2972 RMK AO2 P0000 FZRANO
PAOO 231756Z AUTO 21009KT 9SM -SN BKN024 OVC034 M03/M07 A2971 RMK AO2 SLP073 P0000 60000 T10331072 11033 21056 53008 FZRANO
PAOO 231656Z AUTO 21010KT 9SM -SN OVC022 M04/M07 A2970 RMK AO2 SLP069 P0000 T10441072 FZRANO
PAOO 231605Z AUTO 23007KT 9SM -SN FEW018 OVC028 M05/M07 A2970 RMK AO2 P0000 FZRANO
PAOO 231556Z AUTO 23008KT 9SM -SN SCT018 SCT024 OVC030 M05/M07 A2970 RMK AO2 SLP067 P0000 T10501072 FZRANO
PAOO 231511Z AUTO 23007KT 9SM -SN OVC028 M05/M08 A2969 RMK AO2 P0000 FZRANO
PAOO 231456Z AUTO 24009KT 9SM -SN BKN030 OVC035 M05/M09 A2969 RMK AO2 SNE12B49 SLP064 P0000 60000 T10501089 51006 FZRANO
PAOO 231406Z AUTO 24010KT 9SM -SN FEW028 BKN035 M06/M08 A2968 RMK AO2 P0000 FZRANO
PAOO 231356Z AUTO 24006KT 9SM -SN BKN028 OVC035 M06/M08 A2968 RMK AO2 SNE1257B15 SLP062 P0000 T10561083 FZRANO
PAOO 231256Z AUTO 26011KT 9SM -SN SCT028 BKN035 OVC085 M06/M08 A2968 RMK AO2 SLP061 P0000 T10561083 FZRANO
PAOO 231156Z AUTO 26014KT 9SM -SN OVC033 M05/M08 A2967 RMK AO2 SLP058 P0000 60000 T10501083 11050 21056 53004 FZRANO